公司信息

  • 联系人: 洪小姐
  • 洽洽:
  • 所在地: 深圳市
  • 会员年限: 年限9
  • 企业资质: 查看诚信档案
  • 实体认证: 已认证(2018-09-10)

深圳市纳杰电子有限公司

-
公司信息 更多>
  • 电 话:
    755-83979991  洪小姐
    755-83979771  洪小姐
  • 手 机:
    15818771889
  • Q  Q:
  • Email :
    najiedianzi@163.com
  • 地 址:
    深圳市福田区华强北3号楼2C009QQ2192681185自己现货库存,请报接受价!
MPS旗下产品主要包括: * DC/DC变换器IC, 为电源电压提供各种电子设备。 * LED驱动器集成电路,用于照明显示器,如多孔的手机和手持计算设备。 * CCFL灯管驱动芯片, 用于液晶显示器的照明,如笔记本电脑,平板显示器和电视机。 * D类功放集成电路, 适合小型化和便携式电子设备。 * 线性集成电路包括可运作的电流检测放大器 。 * 电池充电器和保护装置。 * 以太网(PoE)功率解决方案。 MPS产品家族分类及型号列表: 1)音频 D类音频功率放大器 2)电池充电器 3)背光解决方案 CCFL驱动器 白光LED驱动器(基于电感或电荷泵) EL驱动器 4)半桥和全桥功率驱动器 全桥 半桥 5)变压器隔离式电源 6)低压降线性调节器 7)照相闪光解决方案 8)以太网供电的用电设备解决方案 用电设备识别 用电设备控制器 9)精密模拟 运算放大器 高压侧电流感应放大器 10)USB和负载限流开关 11)开关电源调节器 直流—直流(降压) 同步开关 非同步开关 Buck控制器 直流—直流(升压) 非同步开关 同步开关 12)智能相位控制器(单片集成驱动电路加MOSFET) 1)Switching Power Supply Regulators DC-DC (Step-Down)直流—直流(降压) Non-Synchronous Switcher异步开关 MP2498、MP2495、MP2362、MP2364、MP2482、MP2380、MP2365、MP2363、MP2377 P2451、MP2452、MP4462、MP2270、MP1591、MP4560、MP2358、MP2361、MP1409 MP2396、MP1411、MP2565、MP2560、MP4460、MP4350、MP2467、MP2562、MP4458 MP2371、MP2360、MP4459、MP2490、MP4561、MP2359、MP2357 Synchronous Switcher同步开关 MP1567、MP1570、MP2012、MP2101、MP2102、MP2104、MP2105、MP2106、MP2108 MP2109、MP2112、MP2113、MP2116、MP2117、MP2119、MP2125、MP2126、MP2127 MP2127、MP2128、MP2205、MP2205A、MP2207、MP2208、MP2208、MP2209、MP2212 MP2214、MP2305、MP2307、MP2309、MP2372、MP2372、MP2403、MP28114、MP28119 MP28275、MP2905、MP38116、MP38671、MP38870、MP38873、MP38875、MP38876 MP38892、MP38894、MP8352、MP8642、MP8730、MP9115 Buck Controller Buck控制器 MP2905 DC-DC (Step-Up)流—直流(升压) Synchronous Switcher同步开关 MP3115、MP3120、MP3410 Non-Synchronous Switcher MP1517、MP1522、MP1530、MP1531、MP1541、MP1542、MP3201、MP3208、MP3209 MP3212、MP3213、MP3216、MP3217、MP3900、MP9361 LDO Linear Regulators低压降线性调节器 MP2000、MP2002、MP2004、MP20041、MP20042、MP20045、MP2005、MP2007、MP2009 MP2016、MP2030、MP8801、MP8802、MP8903、MP8904 2)Half-Bridge and Full-Bridge Power Drivers半桥和全桥功率驱动器 MP8042、MP8040、MP8042、MP8048 3)Class D Audio Amplifiers D类音频功率放大器 MP1720、MP7720、MP7722、MP7731、MP7740、MP7742、MP7745、MP7782、MP8042、MP8046 4)Backlighting Solutions 背光解决方案 CCFL Drivers 冷阴极荧光灯驱动 MP1010B、MP1026、MP1038、MP1039、MP1048、 White LED Drivers (Inductors and Charge Pumps) 白色发光二极管驱动 MP1517、MP1518、MP1519、MP1519L、MP1521、MP1523、MP1528、MP1529、MP2370、MP2481 MP2488、MP3000、MP3001、MP3011、MP3021、MP3202、MP3204、、MP3205、MP3214、MP3302 MP3304、MP3305、MP3388 EL Drivers场致发光灯驱动 MP3801 5)Battery Chargers电池充电器 MP2601、MP2602、MP26028、MP2603、MP2604、MP2605、MP26053、MP26056、MP26057、MP26058 MP2606、MP2607、MP2608、MP2609、MP2612、MP26121、MP2631、MP2670、MP2671 6)Isolated and Transformer Based Power Supplies 变压器隔离式电源 MP3900、MP3908、MP6001、MP6002 7)Precision Analog 精密模拟片 Operational Amplifiers运算放大器 MP3900、MP6001、MP6002 High-Side Current Sense Amplifiers高压侧电流感应放大器 MP8110 Voltage Reference 电压参考 MP8200、MP8201 8)Power Over Ethernet (PoE) PD Solutions 以太网供电的用电设备解决方案 PD Identity用电设备识别 MP8001、MP8005 PD Controllers 用电设备控制器 MP3908 9)Photo-Flash Solutions照相闪光解决方案 MP3351、MP3352 10)USB and Current-Limit Load Switches USB和负载限流开关 MP5000、MP5001、MP5002、MP5003、MP5006、MP5007、MP5010、MP6205、MP62055 MP62061、MP62071、MP6211/MP6212、MP62150/MP62151、MP62160、MP62160_MP62161 MP6219、MP6231/MP6232、MP6233、MP62350/P62351 11)Intelli-Phase (Monolithic Driver Plus MOSFET) 智能相位控制器(单片集成驱动电路加MOSFET) MP86981 12)Intelligent Rectifier MP6900、MP6901
型号/型号规格   厂商 封装 批号 数量 更新日期 询价
暂无数据
BQ24014DRCR TI/德州仪器 QFN-10 12+ 200 2021-05-10 询价
BQ24610RGER TI/德州仪器 QFN-24 12+ 200 2021-05-10 询价
HF500 MPS/美国芯源 SOP-8 12+13+ 200 2021-05-10 询价
MC56F84442V FREESCALE QFP-64 14+15+ 200 2021-05-10 询价
BQ30Z55 TI/德州仪器 TSSOP-30 12+ 198 2021-05-10 询价
53114A TI/德州仪器 SSOP-16 12+ 197 2021-05-10 询价
M13892AJ FREESCALE BGA 14+15+ 196 2021-05-10 询价
MC34913AE FREESCALE QFP-64 14+15+ 194 2021-05-10 询价
型号/型号规格   厂商 封装 批号 数量 更新日期 询价
暂无数据
MC56F84442V FREESCALE QFP-64 14+15+ 200 2021-05-10 询价
M13892AJ FREESCALE BGA 14+15+ 196 2021-05-10 询价
MC34913AE FREESCALE QFP-64 14+15+ 194 2021-05-10 询价
MC33596FCAE FREESCALE QFN32 12+ 192 2021-05-10 询价
M13892DJ FREESCALE BGA 14+15+ 190 2021-05-10 询价
MC13226V FREESCALE LGA145 12+ 188 2021-05-10 询价
MC34704BEP FREESCALE QFN56 12+ 186 2021-05-10 询价
M16P8V FREESCALE BGA 14+15+ 180 2021-05-10 询价
型号/型号规格   厂商 封装 批号 数量 更新日期 询价
暂无数据
HF500 MPS/美国芯源 SOP-8 12+13+ 200 2021-05-10 询价
8730 MPS/美国芯源 QFN 12+13+ 193 2021-05-10 询价
LN60A01E MPS/美国芯源 SOP-8 12+13+ 173 2021-05-10 询价
ADS1216Y-LF-Z MPS/美国芯源 SOP-8 12+13+ 136 2021-05-10 询价
FM1150 MPS/美国芯源 QFN 12+13+ 125 2021-05-10 询价
MP2492DQ MPS/美国芯源 QFN-10 12+13+ 199 2021-05-10 询价
MP2107ADN-LF-Z MPS/美国芯源 SOP-8 12+13+ 198 2021-05-10 询价
MP4028 MPS/美国芯源 SOP-7 12+13+ 198 2021-05-10 询价
型号/型号规格   厂商 封装 批号 数量 更新日期 询价
暂无数据
BQ24014DRCR TI/德州仪器 QFN-10 12+ 200 2021-05-10 询价
BQ24610RGER TI/德州仪器 QFN-24 12+ 200 2021-05-10 询价
BQ30Z55 TI/德州仪器 TSSOP-30 12+ 198 2021-05-10 询价
53114A TI/德州仪器 SSOP-16 12+ 197 2021-05-10 询价
ADS1254E TI/德州仪器 SOP-20 12+ 191 2021-05-10 询价
INA206AIDGSR TI/德州仪器 MSOP-10 12+ 190 2021-05-10 询价
ADS1112IDGSR TI/德州仪器 MSOP-10 12+ 185 2021-05-10 询价
INA322EA TI/德州仪器 MSOP-8 12+ 184 2021-05-10 询价
型号/型号规格   厂商 封装 批号 数量 更新日期 询价
暂无数据
INA132U BURR-BROWN SOP-8 12+ 185 2021-05-10 询价
ADS7845E BURR-BROWN SSOP-16 12+ 172 2021-05-10 询价
INA141U BURR-BROWN SOP-8 12+ 168 2021-05-10 询价
INA143U BURR-BROWN SOP-8 12+ 165 2021-05-10 询价
INA146UA BURR-BROWN SOP-8 12+ 148 2021-05-10 询价
INA166UA BURR-BROWN SOP-14 12+ 140 2021-05-10 询价
INA163UA BURR-BROWN SOP-14 12+ 132 2021-05-10 询价
INA133U BURR-BROWN SOP-8 12+ 127 2021-05-10 询价
型号/型号规格   厂商 封装 批号 数量 更新日期 询价
暂无数据
VSC7173XY1 MAXIM/美信 QFN 14+ 2143 2021-05-10 询价
VSC7173XYI MAXIM/美信 QFN 11+ 1532 2021-05-10 询价
MAX3232CUE MAXIM/美信 TSSOP-16 14+ 1270 2021-05-10 询价
MAX3243CAI MAXIM/美信 SSOP-28 14+ 936 2021-05-10 询价
4885E MAXIM/美信 QFN 12+ 926 2021-05-10 询价
MAX8556E MAXIM/美信 QFN 14+ 850 2021-05-10 询价
4951C MAXIM/美信 QFN 14+ 678 2021-05-10 询价
17000E MAXIM/美信 QFN 14+ 638 2021-05-10 询价
型号/型号规格   厂商 封装 批号 数量 更新日期 询价
暂无数据
LTM4606V LT LGA 1210+ 150 2021-05-10 询价
LTBJC LT SOT23-5 14+ 2570 2021-05-10 询价
LT1764AEQ-1.5 LT TO-263 10+ 1880 2021-05-10 询价
LT176318 LT SOP-8 14+ 1465 2021-05-10 询价
LTM4606V LT LGA 13+ 1412 2021-05-10 询价
LTC1444CS LT SOP-16 14+ 1180 2021-05-10 询价
LT1764AEQ-1.8 LT TO-263 12+ 512 2021-05-10 询价
LTM4601AV LT LGA 11+ 483 2021-05-10 询价
型号/型号规格   厂商 封装 批号 数量 更新日期 询价
暂无数据
AD7793 ADI/亚德诺 TSSOP-16 14+ 2056 2021-05-10 询价
1032AR ADI/亚德诺 SOP-8 14+ 1145 2021-05-10 询价
ADG774BR ADI/亚德诺 SOP-16 14+ 1030 2021-05-10 询价
ADC44 ADI/亚德诺 MSOP-10 14+ 447 2021-05-10 询价
ADC0T ADI/亚德诺 MSOP-10 14+ 324 2021-05-10 询价
ADS1258TI ADI/亚德诺 QFN 12+ 314 2021-05-10 询价
AD8310A ADI/亚德诺 SOP-8 14+ 289 2021-05-10 询价
AD629A ADI/亚德诺 SOP-8 14+ 246 2021-05-10 询价
型号/型号规格   厂商 封装 批号 数量 更新日期 询价
暂无数据
QS3VH384Q IDT SSOP-24 11+ 150 2021-05-10 询价
Q53VH126QG IDT SSOP-16 12+ 1816 2021-05-10 询价
QS3VH384QG IDT SSOP-24 14+ 1304 2021-05-10 询价
IDT2305-1HDC IDT SOP8 04+ 640 2021-05-10 询价
IDTQS3VH257PAG IDT TSSOP-16 14+ 519 2021-05-10 询价
574MLF IDT SOP-8 14+ 340 2021-05-10 询价
89HPES16T4AG2ZCALG IDT BGA 12+ 239 2021-05-10 询价
ICS9DB803DFLF IDT SSOP-48 14+ 232 2021-05-10 询价
型号/型号规格   厂商 封装 批号 数量 更新日期 询价
暂无数据
R4F2113NBG RENESAS/瑞萨 BGA 11+ 546 2021-05-10 询价
K0346 RENESAS/瑞萨 QFN 14+ 2129 2021-05-10 询价
21RN30213TA-F/R2A30213SP RENESAS/瑞萨 TSSOP-48 10+ 1900 2021-05-10 询价
M38239GCFP RENESAS/瑞萨 QFP80 14+ 1452 2021-05-10 询价
K0364 RENESAS/瑞萨 QFN 14+ 1002 2021-05-10 询价
F2117BG20H RENESAS/瑞萨 BGA 11+ 758 2021-05-10 询价
M30624FGAGP RENESAS/瑞萨 QPF-100 12+13+ 409 2021-05-10 询价
R5F61527RJ48FPV RENESAS/瑞萨 QPF-100 09+ 4980 2021-05-10 询价
型号/型号规格   厂商 封装 批号 数量 更新日期 询价
暂无数据
AHT MPS/美国芯源 TSOT23-8 12+13+ 9000 2021-05-10 询价
CU306 TI/德州仪器 MSOP-8 9413 2021-05-10 询价
AFL MPS/美国芯源 TSOT23-8 12+13+ 9768 2021-05-10 询价
88W8399-B2-BDK1C00 MARVELL BGA 05+ 10000 2021-05-10 询价
88W8019-B1-NXA1C00 MARVELL QFN48 05+ 10000 2021-05-10 询价
88W8515-A7-BAN1C000 MARVELL BGA 06+ 10004 2021-05-10 询价
AER MPS/美国芯源 QFN16 12+13+ 10375 2021-05-10 询价
8E MPS/美国芯源 QFN-10 12+13+ 16000 2021-05-10 询价
型号/型号规格   厂商 封装 批号 数量 更新日期 询价
暂无数据
BQ24620RVAR TI/德州仪器 QFN-16 12+ 1000 2021-05-10 询价
DSD1702E TI/德州仪器 SOP-20 12+ 1000 2021-05-10 询价
550015 TI/德州仪器 SSOP-20 12+ 1000 2021-05-10 询价
DDC101U TI/德州仪器 SOP-24 12+ 1000 2021-05-10 询价
ADS7824U TI/德州仪器 SOP-28 12+ 1000 2021-05-10 询价
DAC7614U TI/德州仪器 SOP-16 12+ 1000 2021-05-10 询价
INA194AQDBVRQ1 TI/德州仪器 SOT23-5 12+ 1000 2021-05-10 询价
BQ24061DRCR TI/德州仪器 QFN-10 12+ 1000 2021-05-10 询价
型号/型号规格   厂商 封装 批号 数量 更新日期 询价
暂无数据
24C02WI ST/意法 SOP-8 14+ 1000 2021-05-10 询价
MC68HC908EY16CFA FREESCALE QFP-32 14+15+ 1000 2021-05-10 询价
BQ24085DRCR TI/德州仪器 QFN-10 12+ 1000 2021-05-10 询价
BQ24707RGRR TI/德州仪器 QFN-20 12+ 1000 2021-05-10 询价
AW9523A AWINIC QFN 12+13+ 2029 2021-05-10 询价
MC68908GR16CFJE FREESCALE QFP-32 14+15+ 3292 2021-05-10 询价
MC33926PNB FREESCALE PQFN32 14+15+ 6105 2021-05-10 询价
MSP430F1121AIRGER TI/德州仪器 QFN-24 12+ 1000 2021-05-10 询价
型号/型号规格   厂商 封装 批号 数量 更新日期 询价
暂无数据
ADS7812U TI/德州仪器 SOP-16 12+ 1000 2021-05-10 询价
MC56F84763V FREESCALE QFP-64 14+15+ 1000 2021-05-10 询价
MC56F8036V FREESCALE QFP-48 14+15+ 1000 2021-05-10 询价
MC34716EP FREESCALE QFN26 12+ 1000 2021-05-10 询价
MC33984CHFK FREESCALE PQFN16 14+15+ 9585 2021-05-10 询价
MC9S08AW16MPUE FREESCALE QFP-64 14+15+ 1000 2021-05-10 询价
MSP430G2001IPW14 TI/德州仪器 SSOP-14 12+ 1000 2021-05-10 询价
MC9S08DZ32ACLC FREESCALE QFP-32 14+15+ 1000 2021-05-10 询价
型号/型号规格   厂商 封装 批号 数量 更新日期 询价
暂无数据
ADS1000A1IDBVT TI/德州仪器 SOT23-6 12+ 1000 2021-05-10 询价
INA114AU TI/德州仪器 SOP-16 12+ 1000 2021-05-10 询价
ADS1211U TI/德州仪器 SOP-24 12+ 1000 2021-05-10 询价
ADS1216Y TI/德州仪器 QFP48 12+ 1000 2021-05-10 询价
ADS1100A0IDBVT TI/德州仪器 SOT23-6 12+ 1000 2021-05-10 询价
ADS1110A0IDBVT TI/德州仪器 SOT23-6 12+ 1000 2021-05-10 询价
INA159AIDGKR TI/德州仪器 MSOP-8 12+ 1000 2021-05-10 询价
INA2126U TI/德州仪器 SOP-16 12+ 1000 2021-05-10 询价
型号/型号规格   厂商 封装 批号 数量 更新日期 询价
暂无数据
LTM4618V LINEAR/凌特 LGA84 11+ 1000 2021-05-10 询价
HF01B04 MPS/美国芯源 DIP-7 12+13+ 1000 2021-05-10 询价
HF01B04 MPS/美国芯源 SOP-7 12+13+ 16911 2021-05-10 询价
SC667331VLH7 FREESCALE QFP-64 14+15+ 1000 2021-05-10 询价
REF3225AIDBVR TI/德州仪器 SOT23-6 12+ 1000 2021-05-10 询价
MP2565DN-LF-Z MPS/美国芯源 SOP-8 12+13+ 1000 2021-05-10 询价
MP26123 MPS/美国芯源 QFN-16 12+13+ 1000 2021-05-10 询价
MKE06Z128VLH4 FREESCALE QFP-64 14+15+ 1000 2021-05-10 询价
型号/型号规格   厂商 封装 批号 数量 更新日期 询价
暂无数据
LM2903PW TI/德州仪器 MSOP-8 12+ 1000 2021-05-10 询价
ADS7953SRHBR TI/德州仪器 QFN-32 12+ 1000 2021-05-10 询价
LM358A TI/德州仪器 SOP-8 12+ 1000 2021-05-10 询价
INA125UA TI/德州仪器 SOP-16 12+ 1000 2021-05-10 询价
AD8552 ADI/亚德诺 SOP-8 11+ 1000 2021-05-10 询价
AD8609 ADI/亚德诺 SOP-14 11+ 1000 2021-05-10 询价
AD820A ADI/亚德诺 SOP-8 11+ 1000 2021-05-10 询价
INA118U BURR-BROWN SOP-8 12+ 1000 2021-05-10 询价
型号/型号规格   厂商 封装 批号 数量 更新日期 询价
暂无数据
MAX1927REUB MAXIM/美信 MSOP10 03+ 1000 2021-05-10 询价
ADS7843E TI/德州仪器 SSOP-16 12+ 1000 2021-05-10 询价
CY62128ELL-45 CYPRESS/赛普拉斯 1000 2021-05-10 询价
CY7C1019DV33 CYPRESS/赛普拉斯 1000 2021-05-10 询价
MC33888PNB FREESCALE PQFN24 14+15+ 5460 2021-05-10 询价
MC68HC908GR8CFA FREESCALE QFP-32 06+ 7500 2021-05-10 询价
MC908JL3ECDWE FREESCALE SOP-28 14+15+ 1000 2021-05-10 询价
MC9S08AW32CFUE FREESCALE TQFP-64 14+15+ 1000 2021-05-10 询价
型号/型号规格   厂商 封装 批号 数量 更新日期 询价
暂无数据
MP8802DJ-2.5 MPS/美国芯源 SOT23-5 12+13+ 1000 2021-05-10 询价
MP1518DJE-LF-Z MPS/美国芯源 SOT23-6 12+13+ 1000 2021-05-10 询价
MP1523DT-LF-Z MPS/美国芯源 SOT23-5 12+13+ 1000 2021-05-10 询价
MP2359DT-LF-Z MPS/美国芯源 SOT23-6 12+13+ 1563 2021-05-10 询价
MP2314GJ-LF-Z MPS/美国芯源 TSOT23-8 12+13+ 1893 2021-05-10 询价
SDS511Q AUK SOD-535 12+ 40000 2021-05-10 询价
TPS61160DRVR TI/德州仪器 QFN-6 12+ 1000 2021-05-10 询价
型号/型号规格   厂商 封装 批号 数量 更新日期 询价
暂无数据
CM053B TI/德州仪器 SSOP-16 12+ 1000 2021-05-10 询价
LV14A TI/德州仪器 SOP-14 12+ 1000 2021-05-10 询价
65HVD33 TI/德州仪器 SOP-14 12+ 1029 2021-05-10 询价
NTE1205MC MURATA/村田 SMD 1408+ 1000 2021-05-10 询价
UCC38C40D TI/德州仪器 MSOP-8 12+ 1000 2021-05-10 询价
UCC384DP-ADJ TI/德州仪器 SOP-8 12+ 1000 2021-05-10 询价
型号/型号规格   厂商 封装 批号 数量 更新日期 询价
暂无数据
MC56F84452V FREESCALE QFP-64 14+15+ 1000 2021-05-10 询价
MC9S08JM60CLD FREESCALE TQFP-44 14+15+ 1000 2021-05-10 询价
MCIMX6U5DVM10AC FREESCALE BGA624 14+15+ 1000 2021-05-10 询价
MKS22FN128VLH12 FREESCALE QFP-64 14+15+ 1000 2021-05-10 询价
MSP430G2202IPW20 TI/德州仪器 SSOP-20 12+ 1000 2021-05-10 询价
SN74LVC8T245RHL TI/德州仪器 QFN-24 12+ 1000 2021-05-10 询价
型号/型号规格   厂商 封装 批号 数量 更新日期 询价
暂无数据
TPS51124RGER TI/德州仪器 QFN 14+ 1000 2021-05-10 询价
TPS40303DRCR TI/德州仪器 QFN-10 12+ 1000 2021-05-10 询价
TPS51640ARSL TI/德州仪器 QFN-48 12+ 1000 2021-05-10 询价
TPS40101RGER TI/德州仪器 QFN-24 12+ 1000 2021-05-10 询价
TRY MPS/美国芯源 QFN-16 12+13+ 1000 2021-05-10 询价
TRF7960ARHBR TI/德州仪器 QFN-32 12+ 1000 2021-05-10 询价
TRF7963RHBR TI/德州仪器 QFN-32 12+ 1000 2021-05-10 询价
TPS84610RKGR TI/德州仪器 QFN-39 12+ 1000 2021-05-10 询价
型号/型号规格   厂商 封装 批号 数量 更新日期 询价
暂无数据
XC68HC58EG FREESCALE S0P-28 16+17+ 1000 2021-05-10 询价
XC68HC58EG FREESCALE SOP-28 16+17+ 85 2021-05-10 询价
S9KEAZ64AVLK FREESCALE QFP-80 16+17+ 5 2021-05-10 询价
SM900805ACPEW FREESCALE S0P-28 16+17+ 1000 2021-05-10 询价
SM900805ACPEW FREESCALE SOP-54 16+17+ 169 2021-05-10 询价
MC9S08PA4VWJ FREESCALE QFP-64 16+17+ 1000 2021-05-10 询价
MC9S08PA4VWJ FREESCALE SOP-20 16+17+ 43 2021-05-10 询价
MC9S08AW60CPUE FREESCALE QFP-64 14+15+ 1000 2021-05-10 询价
型号/型号规格   厂商 封装 批号 数量 更新日期 询价
暂无数据
MCZ33905CD5EK FREESCALE SOIC-54 16+17+ 1000 2021-05-10 询价
MC33908LAE FREESCALE LQFP48 16+17+ 1000 2021-05-10 询价
MC33907NAE FREESCALE LQFP48 16+17+ 1000 2021-05-10 询价
MC56F84786VLK FREESCALE QFP-80 16+17+ 1000 2021-05-10 询价
MK64FX512VLL12 FREESCALE QFP-100 14+15+ 1000 2021-05-10 询价
MC9S08GB32ACFUE FREESCALE QFP-64 14+15+ 1000 2021-05-10 询价
MC908AP64ACFBE FREESCALE TQFP-44 14+15+ 1000 2021-05-10 询价
MC56F8247MLH FREESCALE QFP-64 14+15+ 1000 2021-05-10 询价
型号/型号规格   厂商 封装 批号 数量 更新日期 询价
暂无数据
MKE04Z64VLK4 FREESCALE QFP-80 16+17+ 7 2021-05-10 询价
MC33907LAE FREESCALE LQFP48 16+17+ 1000 2021-05-10 询价
MC33908NAE FREESCALE LQFP48 16+17+ 1000 2021-05-10 询价
MKL26Z128VLH4 FREESCALE QFP-64 14+15+ 1000 2021-05-10 询价
MK22FN512VLL12 FREESCALE QFP-100 14+15+ 1000 2021-05-10 询价
SC900815G9 FREESCALE QFP-64 14+15+ 1000 2021-05-10 询价
MKE02Z64VLH2 FREESCALE QFP-64 14+15+ 1000 2021-05-10 询价
MC9S08AC16CFGE FREESCALE QFP-44 14+15+ 7872 2021-05-10 询价
型号/型号规格   厂商 封装 批号 数量 更新日期 询价
暂无数据
MKL25Z128VLK4 FREESCALE QFP-80 16+17+ 122 2021-05-10 询价
MKL25Z128VLH4 FREESCALE QFP-64 14+15+ 1000 2021-05-10 询价
MKL27Z256VLH4 FREESCALE QFP-64 14+15+ 1000 2021-05-10 询价
MK60FX512VLQ12 FREESCALE LQFP-144 14+15+ 1000 2021-05-10 询价
S9S12G96F0MLF FREESCALE LQFP-48 12+ 1000 2021-05-10 询价
S9S12G64F0MLH FREESCALE QFP-64 12+ 1000 2021-05-10 询价
MC9S08JM60CLD FREESCALE QFP-44 15+16+ 73 2021-04-10 询价
型号/型号规格   厂商 封装 批号 数量 更新日期 询价
暂无数据
MC908GP32CFBE FREESCALE TQFP-44 14+15+ 1000 2021-05-10 询价
MC9S08AC32CFUE FREESCALE TQFP-64 14+15+ 1000 2021-05-10 询价
型号/型号规格   厂商 封装 批号 数量 更新日期 询价
暂无数据
MCF52254AF80 FREESCALE QFP-100 14+15+ 1000 2021-05-10 询价
M10V5VLF FREESCALE QFP-48 14+15+ 1000 2021-05-10 询价
型号/型号规格   厂商 封装 批号 数量 更新日期 询价
暂无数据
MWCT1013VLH FREESCALE QFP-64 16+17+ 1000 2021-05-10 询价
型号/型号规格   厂商 封装 批号 数量 更新日期 询价
暂无数据
MC9S08RG32FGE FREESCALE QFP-44 14+15+ 1000 2021-05-10 询价
型号/型号规格   厂商 封装 批号 数量 更新日期 询价
暂无数据
SM912H634EV1AE FREESCALE QFP48 16+17+ 1000 2021-05-10 询价
型号/型号规格   厂商 封装 批号 数量 更新日期 询价
暂无数据
S9KEAZ64AMLK FREESCALE QFP-80 16+17+ 7 2021-05-10 询价
相片名称
型号
*厂商 *封装
*批号 *数量
交易说明
查看历史询价> 发送询价